Time;durP1;ratioP1;P1;durP2;ratioP2;P2;SDS_P1;SDS_P2;PMS_P1;PMS_P2;Temp;Humidity;BMP_temperature;BMP_pressure;BME280_temperature;BME280_humidity;BME280_pressure;Samples;Min_cycle;Max_cycle;Signal;HPM_P1;HPM_P2
2022/11/30 00:01:11;;;;;;;197.07;42.35;;;7.70;99.90;;;;;;5091147;28;20028;-73
2022/11/30 00:03:37;;;;;;;215.50;45.40;;;7.70;99.90;;;;;;5092329;28;20067;-72
2022/11/30 00:06:07;;;;;;;148.32;44.22;;;7.90;99.90;;;;;;5092214;28;20048;-73
2022/11/30 00:08:33;;;;;;;131.80;42.58;;;7.90;99.90;;;;;;5092008;28;20483;-73
2022/11/30 00:10:59;;;;;;;121.13;42.35;;;8.10;99.90;;;;;;5092324;28;20054;-73
2022/11/30 00:13:25;;;;;;;234.30;48.58;;;8.00;99.90;;;;;;5092326;28;20024;-73
2022/11/30 00:15:50;;;;;;;119.25;41.00;;;8.30;99.90;;;;;;5092333;28;20021;-73
2022/11/30 00:18:16;;;;;;;112.43;39.25;;;7.90;99.90;;;;;;5092012;28;20035;-73
2022/11/30 00:20:43;;;;;;;125.82;40.97;;;7.70;99.90;;;;;;5086188;28;20111;-73
2022/11/30 00:23:09;;;;;;;114.40;40.08;;;7.50;99.90;;;;;;5090243;28;20089;-73
2022/11/30 00:25:36;;;;;;;121.22;41.05;;;7.50;99.90;;;;;;5096014;28;20020;-73
2022/11/30 00:28:02;;;;;;;114.40;38.60;;;7.70;99.90;;;;;;5095870;28;20028;-73
2022/11/30 00:30:29;;;;;;;131.88;40.75;;;7.50;99.90;;;;;;5095872;28;20023;-73
2022/11/30 00:32:58;;;;;;;154.63;40.95;;;7.70;99.90;;;;;;5095844;28;20107;-73
2022/11/30 00:35:24;;;;;;;127.18;41.63;;;8.10;99.90;;;;;;5096125;28;20064;-73
2022/11/30 00:37:49;;;;;;;129.32;41.55;;;8.00;99.90;;;;;;5094530;28;20048;-74
2022/11/30 00:40:15;;;;;;;170.30;43.45;;;7.70;99.90;;;;;;5095652;28;20028;-73
2022/11/30 00:42:41;;;;;;;116.53;41.38;;;7.60;99.90;;;;;;5095597;28;20040;-73
2022/11/30 00:45:07;;;;;;;124.20;41.90;;;7.50;99.90;;;;;;5095426;28;20032;-73
2022/11/30 00:47:33;;;;;;;136.85;42.10;;;7.40;99.90;;;;;;5094045;28;20392;-73
2022/11/30 00:49:59;;;;;;;128.48;42.08;;;7.40;99.90;;;;;;5093834;28;20035;-73
2022/11/30 00:52:24;;;;;;;131.95;42.35;;;7.40;99.90;;;;;;5077086;28;20024;-73
2022/11/30 00:54:50;;;;;;;125.93;40.63;;;7.50;99.90;;;;;;5095496;28;20534;-73
2022/11/30 00:57:16;;;;;;;106.57;36.90;;;7.60;99.90;;;;;;5067232;28;20051;-73
2022/11/30 00:59:42;;;;;;;110.72;37.35;;;7.60;99.90;;;;;;5095052;28;20399;-73
2022/11/30 01:02:08;;;;;;;89.18;35.20;;;7.50;99.90;;;;;;5095213;28;20044;-72
2022/11/30 01:04:33;;;;;;;106.70;37.15;;;7.40;99.90;;;;;;5094963;28;20027;-72
2022/11/30 01:06:59;;;;;;;86.28;35.95;;;7.40;99.90;;;;;;5094762;28;20038;-73
2022/11/30 01:09:25;;;;;;;93.70;36.08;;;7.30;99.90;;;;;;5094974;28;20097;-73
2022/11/30 01:11:50;;;;;;;76.25;32.83;;;7.30;99.90;;;;;;5093770;28;20063;-73
2022/11/30 01:14:16;;;;;;;78.40;34.47;;;7.30;99.90;;;;;;5093877;28;20039;-72
2022/11/30 01:16:42;;;;;;;89.70;34.40;;;7.30;99.90;;;;;;5094866;28;20028;-73
2022/11/30 01:19:08;;;;;;;77.57;34.40;;;7.20;99.90;;;;;;5094582;28;20030;-73
2022/11/30 01:21:33;;;;;;;104.10;35.28;;;7.30;99.90;;;;;;5093241;28;20036;-73
2022/11/30 01:23:59;;;;;;;100.78;35.58;;;7.00;99.90;;;;;;5094914;28;20028;-73
2022/11/30 01:26:25;;;;;;;90.82;34.83;;;7.20;99.90;;;;;;5094719;28;20457;-73
2022/11/30 01:28:52;;;;;;;147.20;37.65;;;7.20;99.90;;;;;;5094601;28;20032;-73
2022/11/30 01:31:19;;;;;;;134.55;37.78;;;7.20;99.90;;;;;;5094638;28;20032;-72
2022/11/30 01:33:53;;;;;;;86.45;33.08;;;7.40;99.90;;;;;;5094407;28;20028;-73
2022/11/30 01:36:24;;;;;;;86.63;35.00;;;7.30;99.90;;;;;;5093710;28;20447;-73
2022/11/30 01:38:56;;;;;;;77.00;32.13;;;7.50;99.90;;;;;;5094685;28;20036;-73
2022/11/30 01:41:28;;;;;;;63.50;28.25;;;7.40;99.90;;;;;;5094428;28;20039;-73
2022/11/30 01:44:03;;;;;;;57.22;25.42;;;7.30;99.90;;;;;;5094308;28;20067;-73
2022/11/30 01:46:35;;;;;;;47.28;24.42;;;7.20;99.90;;;;;;5094499;28;20039;-73
2022/11/30 01:49:13;;;;;;;49.75;24.92;;;7.10;99.90;;;;;;5094105;28;20118;-73
2022/11/30 01:51:44;;;;;;;58.22;25.42;;;7.30;99.90;;;;;;5092881;28;20384;-73
2022/11/30 01:54:14;;;;;;;64.28;26.65;;;7.30;99.90;;;;;;5093031;28;20032;-73
2022/11/30 01:56:50;;;;;;;50.90;23.73;;;7.20;99.90;;;;;;5094303;28;20031;-73
2022/11/30 01:59:19;;;;;;;54.90;27.00;;;7.30;99.90;;;;;;5092851;28;20119;-73
2022/11/30 02:01:45;;;;;;;49.13;25.35;;;7.40;99.90;;;;;;5094003;28;20028;-73
2022/11/30 02:04:18;;;;;;;53.97;25.73;;;7.20;99.90;;;;;;5093855;28;20108;-73
2022/11/30 02:06:44;;;;;;;64.70;26.95;;;7.30;99.90;;;;;;5092848;28;20130;-73
2022/11/30 02:09:12;;;;;;;60.30;27.02;;;7.10;99.90;;;;;;5092677;28;20028;-73
2022/11/30 02:11:37;;;;;;;64.10;27.55;;;7.40;99.90;;;;;;5093943;28;20020;-73
2022/11/30 02:14:17;;;;;;;85.65;31.42;;;7.40;99.90;;;;;;5092756;28;20036;-73
2022/11/30 02:17:04;;;;;;;93.25;30.88;;;7.50;99.90;;;;;;5093805;28;20028;-73
2022/11/30 02:19:51;;;;;;;73.93;29.08;;;7.60;99.90;;;;;;5093448;28;20028;-73
2022/11/30 02:22:16;;;;;;;140.32;31.08;;;7.30;99.90;;;;;;5093402;28;20039;-73
2022/11/30 02:25:04;;;;;;;114.30;30.98;;;7.30;99.90;;;;;;5093814;28;20028;-73
2022/11/30 02:27:57;;;;;;;183.25;31.63;;;7.40;99.90;;;;;;5093631;28;20031;-73
2022/11/30 02:30:23;;;;;;;166.35;30.80;;;7.20;99.90;;;;;;5092287;28;20081;-73
2022/11/30 02:32:58;;;;;;;173.02;32.17;;;6.90;99.90;;;;;;5091964;28;20024;-73
2022/11/30 02:35:31;;;;;;;169.13;30.00;;;7.00;99.90;;;;;;5093500;28;20392;-73
2022/11/30 02:38:01;;;;;;;264.98;33.00;;;6.90;99.90;;;;;;5093229;28;20064;-73
2022/11/30 02:40:26;;;;;;;158.38;30.42;;;6.70;99.90;;;;;;5092340;28;20362;-72
2022/11/30 02:42:54;;;;;;;383.48;37.72;;;6.70;99.90;;;;;;5093277;28;20043;-73
2022/11/30 02:45:30;;;;;;;137.73;29.58;;;6.80;99.90;;;;;;5093402;28;20032;-73
2022/11/30 02:48:08;;;;;;;196.55;30.60;;;6.90;99.90;;;;;;5091712;28;20028;-73
2022/11/30 02:50:41;;;;;;;303.58;36.60;;;6.90;99.90;;;;;;5093303;28;20461;-73
2022/11/30 02:53:08;;;;;;;480.55;40.45;;;6.80;99.90;;;;;;5091892;28;20119;-73
2022/11/30 02:55:34;;;;;;;207.25;31.05;;;7.10;99.90;;;;;;5093335;28;20021;-73
2022/11/30 02:58:00;;;;;;;315.55;34.22;;;6.90;99.90;;;;;;5092930;28;20028;-73
2022/11/30 03:00:25;;;;;;;271.17;30.55;;;6.80;99.90;;;;;;5093297;28;20035;-73
2022/11/30 03:02:51;;;;;;;583.75;39.88;;;6.90;99.90;;;;;;5092713;28;20024;-73
2022/11/30 03:05:17;;;;;;;384.98;33.58;;;6.90;99.90;;;;;;5091612;28;20039;-73
2022/11/30 03:07:44;;;;;;;573.65;40.50;;;7.00;99.90;;;;;;5092956;28;20111;-73
2022/11/30 03:10:10;;;;;;;206.57;31.15;;;7.00;99.90;;;;;;5093055;28;20028;-74
2022/11/30 03:12:36;;;;;;;595.13;48.08;;;6.90;99.90;;;;;;5093306;28;20111;-74
2022/11/30 03:15:03;;;;;;;530.45;40.08;;;7.10;99.90;;;;;;5092692;28;20032;-73
2022/11/30 03:17:28;;;;;;;304.15;32.53;;;7.00;99.90;;;;;;5092500;28;20020;-73
2022/11/30 03:19:54;;;;;;;550.60;43.08;;;6.80;99.90;;;;;;5091629;28;20472;-73
2022/11/30 03:22:20;;;;;;;219.63;31.10;;;6.80;99.90;;;;;;5091569;28;20416;-73
2022/11/30 03:24:45;;;;;;;640.38;45.80;;;7.00;99.90;;;;;;5092863;28;20027;-73
2022/11/30 03:27:11;;;;;;;339.10;35.13;;;7.00;99.90;;;;;;5092690;28;20032;-73
2022/11/30 03:29:38;;;;;;;371.15;34.55;;;6.70;99.90;;;;;;5092891;28;20538;-73
2022/11/30 03:32:04;;;;;;;222.15;30.92;;;6.70;99.90;;;;;;5092296;28;20101;-73
2022/11/30 03:34:30;;;;;;;292.10;31.73;;;6.70;99.90;;;;;;5092625;28;20053;-73
2022/11/30 03:36:56;;;;;;;147.68;27.90;;;6.80;99.90;;;;;;5092641;28;20132;-73
2022/11/30 03:39:23;;;;;;;288.75;33.03;;;6.90;99.90;;;;;;5092651;28;20024;-73
2022/11/30 03:41:49;;;;;;;235.07;32.88;;;6.80;99.90;;;;;;5092713;28;20468;-73
2022/11/30 03:44:14;;;;;;;325.67;32.97;;;6.70;99.90;;;;;;5088509;28;20039;-73
2022/11/30 03:46:40;;;;;;;328.65;35.78;;;6.70;99.90;;;;;;5070896;28;20016;-73
2022/11/30 03:49:06;;;;;;;244.02;30.50;;;7.00;99.90;;;;;;5072052;28;20021;-73
2022/11/30 03:51:32;;;;;;;270.83;30.80;;;6.80;99.90;;;;;;5072623;28;20025;-72
2022/11/30 03:53:57;;;;;;;383.35;33.28;;;6.70;99.90;;;;;;5072298;28;20028;-73
2022/11/30 03:56:23;;;;;;;657.40;42.28;;;6.90;99.90;;;;;;5071107;28;20025;-73
2022/11/30 03:58:50;;;;;;;170.30;28.75;;;7.00;99.90;;;;;;5093655;28;20024;-73
2022/11/30 04:01:22;;;;;;;153.80;27.15;;;6.80;99.90;;;;;;5095343;28;20110;-73
2022/11/30 04:03:50;;;;;;;212.10;30.00;;;6.60;99.90;;;;;;5077073;28;20036;-73
2022/11/30 04:06:16;;;;;;;142.68;29.05;;;6.40;99.90;;;;;;5076011;28;20481;-73
2022/11/30 04:08:42;;;;;;;588.35;40.97;;;6.50;99.90;;;;;;5074630;28;20043;-73
2022/11/30 04:11:08;;;;;;;467.60;39.85;;;6.60;99.90;;;;;;5076055;28;20107;-72
2022/11/30 04:13:36;;;;;;;233.05;31.77;;;6.70;99.90;;;;;;5074373;28;20034;-72
2022/11/30 04:16:03;;;;;;;212.55;29.42;;;6.70;99.90;;;;;;5075979;28;20068;-73
2022/11/30 04:18:30;;;;;;;278.08;32.67;;;6.60;99.90;;;;;;5075881;28;20025;-73
2022/11/30 04:20:57;;;;;;;181.73;28.65;;;6.50;99.90;;;;;;5075749;28;20024;-73
2022/11/30 04:23:25;;;;;;;185.57;29.70;;;6.80;99.90;;;;;;5075875;28;20033;-72
2022/11/30 04:25:51;;;;;;;229.35;30.88;;;6.50;99.90;;;;;;5075800;28;20488;-73
2022/11/30 04:28:17;;;;;;;305.33;33.30;;;6.50;99.90;;;;;;5075419;28;20051;-72
2022/11/30 04:30:45;;;;;;;332.83;34.92;;;6.90;99.90;;;;;;5075457;28;20033;-73
2022/11/30 04:33:12;;;;;;;235.38;29.77;;;6.70;99.90;;;;;;5075709;28;20028;-73
2022/11/30 04:35:47;;;;;;;212.07;30.15;;;6.50;99.90;;;;;;5073958;28;20033;-73
2022/11/30 04:38:13;;;;;;;325.67;33.50;;;6.40;99.90;;;;;;5075259;28;20040;-73
2022/11/30 04:40:40;;;;;;;443.85;35.63;;;6.40;99.90;;;;;;5075317;28;20031;-72
2022/11/30 04:43:06;;;;;;;264.92;29.73;;;6.30;99.90;;;;;;5075103;28;20047;-73
2022/11/30 04:45:31;;;;;;;262.48;31.58;;;6.30;99.90;;;;;;5075211;28;20148;-72
2022/11/30 04:47:57;;;;;;;146.30;28.67;;;6.40;99.90;;;;;;5074009;28;20121;-73
2022/11/30 04:50:23;;;;;;;150.98;27.90;;;6.40;99.90;;;;;;5075073;28;20035;-72
2022/11/30 04:52:49;;;;;;;241.73;29.45;;;6.20;99.90;;;;;;5074950;28;20129;-73
2022/11/30 04:55:18;;;;;;;301.38;31.73;;;6.40;99.90;;;;;;5073807;28;20032;-73
2022/11/30 04:57:45;;;;;;;116.07;25.42;;;6.40;99.90;;;;;;5074739;28;20032;-73
2022/11/30 05:00:12;;;;;;;98.45;24.65;;;6.20;99.90;;;;;;5073485;28;20476;-73
2022/11/30 05:02:37;;;;;;;187.60;27.67;;;6.00;99.90;;;;;;5075076;28;20094;-72
2022/11/30 05:05:03;;;;;;;135.88;25.05;;;6.10;99.90;;;;;;5056677;28;20428;-72
2022/11/30 05:07:29;;;;;;;142.82;27.88;;;6.00;99.90;;;;;;5074939;28;20040;-74
2022/11/30 05:09:55;;;;;;;115.90;28.17;;;6.20;99.90;;;;;;5074422;28;20024;-73
2022/11/30 05:12:20;;;;;;;231.10;30.67;;;6.40;99.90;;;;;;5074611;28;20054;-72
2022/11/30 05:14:46;;;;;;;170.77;27.10;;;6.50;99.90;;;;;;5073442;28;20078;-73
2022/11/30 05:17:12;;;;;;;182.50;26.35;;;6.50;99.90;;;;;;5074165;28;20056;-73
2022/11/30 05:19:38;;;;;;;154.48;28.50;;;6.20;99.90;;;;;;5074406;28;20020;-73
2022/11/30 05:22:03;;;;;;;176.02;26.95;;;6.00;99.90;;;;;;5074502;28;20032;-73
2022/11/30 05:24:29;;;;;;;96.63;25.85;;;6.10;99.90;;;;;;5074627;28;20017;-73
2022/11/30 05:26:55;;;;;;;264.38;30.20;;;6.10;99.90;;;;;;5056194;28;20039;-73
2022/11/30 05:29:21;;;;;;;102.03;27.25;;;6.10;99.90;;;;;;5073481;28;20020;-73
2022/11/30 05:31:46;;;;;;;93.97;25.75;;;6.20;99.90;;;;;;5074502;28;20039;-73
2022/11/30 05:34:12;;;;;;;73.15;26.27;;;6.00;99.90;;;;;;5074370;28;20039;-73
2022/11/30 05:36:38;;;;;;;82.05;23.27;;;6.30;99.90;;;;;;5074432;28;20058;-72
2022/11/30 05:39:04;;;;;;;60.40;24.15;;;6.20;99.90;;;;;;5074276;28;20391;-72
2022/11/30 05:41:30;;;;;;;93.68;25.33;;;6.20;99.90;;;;;;5073910;28;20024;-73
2022/11/30 05:43:56;;;;;;;116.80;25.75;;;6.20;99.90;;;;;;5073158;28;20033;-73
2022/11/30 05:46:21;;;;;;;146.55;26.35;;;6.20;99.90;;;;;;5074832;28;20017;-74
2022/11/30 05:48:47;;;;;;;107.53;25.83;;;6.60;99.90;;;;;;5074410;28;20530;-73
2022/11/30 05:51:16;;;;;;;239.43;30.45;;;6.70;99.90;;;;;;5073999;28;20491;-72
2022/11/30 05:53:43;;;;;;;150.65;27.55;;;6.80;99.90;;;;;;5074305;28;20016;-75
2022/11/30 05:56:14;;;;;;;323.75;33.75;;;7.00;99.90;;;;;;5074234;28;20479;-73
2022/11/30 05:58:41;;;;;;;153.90;26.02;;;7.10;99.90;;;;;;5074038;28;20027;-73
2022/11/30 06:01:07;;;;;;;597.92;40.33;;;7.00;99.90;;;;;;5073810;28;20017;-73
2022/11/30 06:03:34;;;;;;;250.80;29.90;;;6.90;99.90;;;;;;5073777;28;20039;-72
2022/11/30 06:06:00;;;;;;;298.13;30.02;;;7.00;99.90;;;;;;5074125;28;20113;-73
2022/11/30 06:08:27;;;;;;;256.02;37.35;;;7.00;99.90;;;;;;5072275;28;20032;-72
2022/11/30 06:10:53;;;;;;;416.58;34.58;;;7.00;99.90;;;;;;5072256;28;20020;-72
2022/11/30 06:13:19;;;;;;;317.83;34.33;;;7.20;99.90;;;;;;5073587;28;20529;-72
2022/11/30 06:15:45;;;;;;;334.75;32.55;;;7.30;99.90;;;;;;5073828;28;20107;-72
2022/11/30 06:18:12;;;;;;;454.48;35.47;;;7.00;99.90;;;;;;5073561;28;20532;-72
2022/11/30 06:20:38;;;;;;;690.30;50.30;;;7.20;99.90;;;;;;5073213;28;20056;-72
2022/11/30 06:23:04;;;;;;;252.68;31.05;;;7.20;99.90;;;;;;5057533;28;20477;-72
2022/11/30 06:25:30;;;;;;;620.50;40.65;;;7.10;99.90;;;;;;5074738;28;20035;-72
2022/11/30 06:27:56;;;;;;;333.10;32.90;;;7.10;99.90;;;;;;5073457;28;20037;-73
2022/11/30 06:30:22;;;;;;;269.77;32.55;;;7.20;99.90;;;;;;5073156;28;20362;-72
2022/11/30 06:32:50;;;;;;;688.03;46.95;;;7.00;99.90;;;;;;5073378;28;20547;-72
2022/11/30 06:35:17;;;;;;;276.10;32.72;;;7.30;99.90;;;;;;5063732;28;20032;-72
2022/11/30 06:37:42;;;;;;;232.27;35.78;;;7.10;99.90;;;;;;5061691;28;20036;-72
2022/11/30 06:40:10;;;;;;;237.27;38.55;;;7.30;99.90;;;;;;5071047;28;20495;-72
2022/11/30 06:42:37;;;;;;;650.83;47.97;;;7.40;99.90;;;;;;5065631;28;20035;-72
2022/11/30 06:45:04;;;;;;;407.10;39.80;;;7.40;99.90;;;;;;5071194;28;20955;-72
2022/11/30 06:47:30;;;;;;;518.72;45.92;;;7.50;99.90;;;;;;5068455;28;20037;-72
2022/11/30 06:49:56;;;;;;;583.88;47.20;;;7.50;99.90;;;;;;5071037;28;20021;-72
2022/11/30 06:52:22;;;;;;;440.60;42.10;;;7.60;99.90;;;;;;5072062;28;20081;-71
2022/11/30 06:54:48;;;;;;;595.95;74.30;;;7.60;99.90;;;;;;5068591;28;20053;-72
2022/11/30 06:57:13;;;;;;;1465.10;143.68;;;7.30;99.90;;;;;;5072219;28;20538;-72
2022/11/30 06:59:42;;;;;;;256.42;43.83;;;7.30;99.90;;;;;;5072209;28;20104;-72
2022/11/30 07:02:12;;;;;;;591.35;58.45;;;7.30;99.90;;;;;;5069944;28;20024;-72
2022/11/30 07:04:37;;;;;;;254.40;46.22;;;7.00;99.90;;;;;;5072077;28;20420;-72
2022/11/30 07:07:04;;;;;;;333.27;47.60;;;7.10;99.90;;;;;;5064222;28;20021;-72
2022/11/30 07:09:31;;;;;;;503.67;55.17;;;7.10;99.90;;;;;;5068480;28;20430;-72
2022/11/30 07:11:57;;;;;;;762.63;63.20;;;7.40;99.90;;;;;;5069643;28;20064;-72
2022/11/30 07:14:23;;;;;;;170.18;42.85;;;7.10;99.90;;;;;;5071331;28;20029;-72
2022/11/30 07:16:48;;;;;;;256.02;46.92;;;6.90;99.90;;;;;;5059050;28;20017;-71
2022/11/30 07:19:14;;;;;;;374.40;43.20;;;6.50;99.90;;;;;;5066899;28;20028;-72
2022/11/30 07:21:40;;;;;;;382.25;45.15;;;6.40;99.90;;;;;;5071168;28;20035;-72
2022/11/30 07:26:50;;;;;;;500.83;53.50;;;6.30;99.90;;;;;;5070975;28;20135;-72
2022/11/30 07:29:16;;;;;;;273.90;38.50;;;6.50;99.90;;;;;;5062603;28;20550;-72
2022/11/30 07:31:41;;;;;;;285.67;40.55;;;6.80;99.90;;;;;;5069923;28;20112;-72
2022/11/30 07:34:08;;;;;;;321.92;40.88;;;6.70;99.90;;;;;;5072805;28;20024;-72
2022/11/30 07:36:35;;;;;;;589.70;54.00;;;6.60;99.90;;;;;;5067475;28;20477;-72
2022/11/30 07:39:02;;;;;;;658.30;56.35;;;6.70;99.90;;;;;;5073916;28;20473;-72
2022/11/30 07:41:28;;;;;;;802.03;61.15;;;6.60;99.90;;;;;;5075576;28;20032;-72
2022/11/30 07:43:54;;;;;;;641.95;53.55;;;6.90;99.90;;;;;;5075289;28;20041;-73
2022/11/30 07:46:20;;;;;;;350.73;42.65;;;7.00;99.90;;;;;;5073903;28;20013;-72
2022/11/30 07:48:46;;;;;;;370.35;44.15;;;7.00;99.90;;;;;;5074797;28;20032;-72
2022/11/30 07:51:18;;;;;;;273.65;43.92;;;7.00;99.90;;;;;;5072694;28;20032;-72
2022/11/30 07:53:45;;;;;;;401.77;45.70;;;6.80;99.90;;;;;;5074939;28;20032;-72
2022/11/30 07:56:16;;;;;;;448.30;54.50;;;6.90;99.90;;;;;;5075441;28;20536;-72
2022/11/30 07:58:42;;;;;;;715.70;59.78;;;6.90;99.90;;;;;;5075042;28;20123;-72
2022/11/30 08:01:16;;;;;;;483.80;50.53;;;7.00;99.90;;;;;;5075503;28;20116;-72
2022/11/30 08:03:42;;;;;;;563.50;55.22;;;7.10;99.90;;;;;;5064948;28;20041;-73
2022/11/30 08:06:10;;;;;;;282.70;42.67;;;7.10;99.90;;;;;;5074161;28;20084;-72
2022/11/30 08:08:41;;;;;;;332.77;45.20;;;6.80;99.90;;;;;;5074723;28;20473;-72
2022/11/30 08:11:11;;;;;;;713.75;66.13;;;6.90;99.90;;;;;;5075471;28;20031;-72
2022/11/30 08:13:37;;;;;;;358.63;46.83;;;6.90;99.90;;;;;;5073908;28;20036;-73
2022/11/30 08:16:14;;;;;;;662.63;55.28;;;6.80;99.90;;;;;;5075266;28;20029;-72
2022/11/30 08:18:41;;;;;;;476.85;53.15;;;6.80;99.90;;;;;;5074611;28;20082;-73
2022/11/30 08:21:09;;;;;;;373.90;49.42;;;7.10;99.90;;;;;;5074320;28;20020;-73
2022/11/30 08:23:38;;;;;;;442.42;48.58;;;6.80;99.90;;;;;;5073690;28;20086;-73
2022/11/30 08:26:14;;;;;;;411.33;49.63;;;6.70;99.90;;;;;;5072395;28;20020;-72
2022/11/30 08:28:41;;;;;;;318.40;44.90;;;6.50;99.90;;;;;;5073476;28;20097;-73
2022/11/30 08:31:10;;;;;;;602.28;56.95;;;6.60;99.90;;;;;;5074465;28;20033;-72
2022/11/30 08:33:37;;;;;;;490.30;52.78;;;6.90;99.90;;;;;;5075374;28;20033;-72
2022/11/30 08:36:13;;;;;;;480.85;59.78;;;6.90;99.90;;;;;;5072953;28;20033;-72
2022/11/30 08:38:40;;;;;;;455.33;57.10;;;7.10;99.90;;;;;;5075205;28;20529;-72
2022/11/30 08:41:07;;;;;;;315.15;46.35;;;7.10;99.90;;;;;;5075376;28;20151;-72
2022/11/30 08:43:33;;;;;;;674.92;67.68;;;6.60;99.90;;;;;;5075182;28;20036;-72
2022/11/30 08:46:01;;;;;;;875.67;84.00;;;6.70;99.90;;;;;;5075242;28;20130;-72
2022/11/30 08:48:26;;;;;;;172.55;39.70;;;6.90;99.90;;;;;;5073993;28;20425;-71
2022/11/30 08:50:52;;;;;;;208.50;41.38;;;6.50;99.90;;;;;;5074734;28;20101;-72
2022/11/30 08:53:18;;;;;;;156.20;40.05;;;6.40;99.90;;;;;;5075382;28;20025;-72
2022/11/30 08:55:54;;;;;;;419.05;49.15;;;6.50;99.90;;;;;;5075287;28;20145;-72
2022/11/30 08:58:20;;;;;;;266.10;53.10;;;6.70;99.90;;;;;;5062946;28;20496;-72
2022/11/30 09:00:45;;;;;;;322.48;49.42;;;7.10;99.90;;;;;;5074194;28;20017;-72
2022/11/30 09:03:11;;;;;;;545.13;65.43;;;7.30;99.90;;;;;;5072668;28;20032;-72
2022/11/30 09:05:37;;;;;;;194.52;46.40;;;7.60;99.90;;;;;;5072648;28;20040;-72
2022/11/30 09:08:03;;;;;;;316.90;54.75;;;7.20;99.90;;;;;;5073905;28;20020;-72
2022/11/30 09:10:29;;;;;;;451.15;57.20;;;7.40;99.90;;;;;;5051933;28;20034;-72
2022/11/30 09:12:54;;;;;;;159.68;44.60;;;7.70;99.90;;;;;;5073862;28;20115;-72
2022/11/30 09:15:20;;;;;;;352.40;54.70;;;7.50;99.90;;;;;;5074010;28;20078;-72
2022/11/30 09:17:46;;;;;;;276.95;51.67;;;7.50;99.90;;;;;;5074022;28;20039;-71
2022/11/30 09:20:12;;;;;;;255.98;49.22;;;7.50;99.90;;;;;;5073418;28;20130;-72
2022/11/30 09:22:38;;;;;;;183.18;46.72;;;7.20;99.90;;;;;;5069517;28;20029;-72
2022/11/30 09:25:04;;;;;;;458.95;55.35;;;7.30;99.90;;;;;;5070868;28;20033;-72
2022/11/30 09:27:32;;;;;;;258.98;50.95;;;7.70;99.90;;;;;;5072046;28;20032;-72
2022/11/30 09:29:58;;;;;;;182.77;44.80;;;7.70;99.90;;;;;;5073283;28;20074;-72
2022/11/30 09:32:24;;;;;;;414.95;57.72;;;7.60;99.90;;;;;;5070535;28;20032;-72
2022/11/30 09:34:50;;;;;;;179.35;51.75;;;7.90;99.90;;;;;;5068262;28;20123;-71
2022/11/30 09:37:15;;;;;;;402.75;60.47;;;7.70;99.90;;;;;;5073268;28;20116;-72
2022/11/30 09:39:41;;;;;;;167.85;44.92;;;7.80;99.90;;;;;;5073446;28;20039;-72
2022/11/30 09:42:40;;;;;;;415.60;60.10;;;7.30;99.90;;;;;;5073192;28;20404;-72
2022/11/30 09:45:41;;;;;;;384.60;59.65;;;7.40;99.90;;;;;;5073442;28;20024;-72
2022/11/30 09:48:49;;;;;;;381.40;58.60;;;7.60;99.90;;;;;;5039715;28;20409;-72
2022/11/30 09:51:46;;;;;;;169.65;52.67;;;8.00;99.90;;;;;;5050316;28;20489;-72
2022/11/30 09:54:34;;;;;;;199.45;52.72;;;7.60;99.90;;;;;;5071445;28;20032;-74
2022/11/30 09:57:22;;;;;;;410.10;62.60;;;7.80;99.90;;;;;;5057959;28;20028;-73
2022/11/30 09:59:56;;;;;;;178.98;60.20;;;8.00;99.90;;;;;;5070260;28;20048;-72
2022/11/30 10:02:28;;;;;;;153.55;52.67;;;8.00;99.90;;;;;;5071584;28;20043;-72
2022/11/30 10:04:53;;;;;;;308.05;57.28;;;8.00;99.90;;;;;;5071102;28;20159;-73
2022/11/30 10:07:44;;;;;;;433.77;65.00;;;7.90;99.90;;;;;;5072911;28;20527;-73
2022/11/30 10:10:27;;;;;;;416.92;69.32;;;8.20;99.90;;;;;;5069426;28;20118;-73
2022/11/30 10:12:56;;;;;;;507.95;75.75;;;8.20;99.90;;;;;;5072505;28;20085;-72
2022/11/30 10:15:39;;;;;;;202.00;61.65;;;8.60;99.90;;;;;;5072646;28;20040;-72
2022/11/30 10:18:40;;;;;;;223.43;59.28;;;8.60;99.90;;;;;;5064460;28;20384;-73
2022/11/30 10:21:16;;;;;;;187.35;58.15;;;8.20;99.90;;;;;;5060160;28;20049;-72
2022/11/30 10:23:54;;;;;;;261.63;53.97;;;8.30;99.90;;;;;;5073366;28;20478;-72
2022/11/30 10:26:36;;;;;;;285.73;55.42;;;8.00;99.90;;;;;;5072028;28;20111;-73
2022/11/30 10:29:18;;;;;;;155.32;49.20;;;7.90;99.90;;;;;;5072487;28;20381;-73
2022/11/30 10:31:47;;;;;;;321.30;54.42;;;7.60;99.90;;;;;;5072139;28;20036;-73
2022/11/30 10:34:15;;;;;;;576.50;58.63;;;7.70;99.90;;;;;;5072256;28;20013;-72
2022/11/30 10:36:45;;;;;;;499.02;60.17;;;8.20;99.90;;;;;;5069424;28;20044;-73
2022/11/30 10:39:23;;;;;;;226.52;53.92;;;8.60;99.90;;;;;;5070138;28;20028;-73
2022/11/30 10:42:10;;;;;;;230.02;58.45;;;8.90;99.90;;;;;;5072088;28;20036;-73
2022/11/30 10:44:43;;;;;;;458.67;63.70;;;9.00;99.90;;;;;;5059661;28;20068;-73
2022/11/30 10:47:30;;;;;;;226.05;58.53;;;9.20;99.90;;;;;;5071829;28;20036;-73
2022/11/30 10:49:55;;;;;;;199.50;57.30;;;9.40;99.90;;;;;;5070855;28;20461;-73
2022/11/30 10:52:26;;;;;;;623.72;68.38;;;9.60;99.90;;;;;;5072071;28;20103;-73
2022/11/30 10:54:54;;;;;;;214.73;57.88;;;9.80;99.90;;;;;;5071725;28;20021;-73
2022/11/30 10:57:23;;;;;;;201.20;57.55;;;9.10;99.90;;;;;;5071993;28;20538;-73
2022/11/30 10:59:52;;;;;;;154.55;57.92;;;9.30;99.90;;;;;;5070758;28;20035;-74
2022/11/30 11:02:38;;;;;;;158.35;59.88;;;9.60;99.90;;;;;;5070683;28;20055;-74
2022/11/30 11:05:25;;;;;;;164.07;62.17;;;9.50;99.90;;;;;;5071418;28;20048;-73
2022/11/30 11:07:58;;;;;;;169.40;63.90;;;9.90;99.90;;;;;;5071708;28;20047;-73
2022/11/30 11:10:35;;;;;;;167.43;62.22;;;9.80;99.90;;;;;;5071717;28;20017;-73
2022/11/30 11:13:03;;;;;;;157.38;61.28;;;9.80;99.90;;;;;;5071729;28;20028;-73
2022/11/30 11:15:32;;;;;;;191.43;67.65;;;9.00;99.90;;;;;;5071509;28;20109;-72
2022/11/30 11:18:21;;;;;;;173.85;66.93;;;9.40;99.90;;;;;;5070865;28;20117;-73
2022/11/30 11:20:48;;;;;;;171.77;65.47;;;9.30;99.90;;;;;;5060713;28;20610;-73
2022/11/30 11:23:28;;;;;;;171.68;69.55;;;9.40;99.90;;;;;;5071852;28;20127;-73
2022/11/30 11:25:56;;;;;;;177.02;68.90;;;9.40;99.90;;;;;;5068374;28;20409;-73
2022/11/30 11:28:23;;;;;;;184.65;72.28;;;9.30;99.90;;;;;;5069941;28;20489;-73
2022/11/30 11:30:55;;;;;;;188.30;71.03;;;9.70;99.90;;;;;;5071312;28;20024;-73
2022/11/30 11:33:28;;;;;;;162.27;65.18;;;9.80;99.90;;;;;;5072300;28;20358;-73
2022/11/30 11:36:12;;;;;;;165.73;64.85;;;9.20;99.90;;;;;;5069522;28;20039;-73
2022/11/30 11:38:47;;;;;;;163.50;65.13;;;8.70;99.90;;;;;;5071289;28;20690;-73
2022/11/30 11:41:29;;;;;;;165.65;66.43;;;8.70;99.90;;;;;;5080118;28;20376;-73
2022/11/30 11:44:21;;;;;;;168.90;68.25;;;9.20;99.90;;;;;;5092143;28;20044;-73
2022/11/30 11:47:02;;;;;;;178.07;72.28;;;9.30;99.90;;;;;;5092601;28;20118;-73
2022/11/30 11:49:34;;;;;;;191.63;71.68;;;8.90;99.90;;;;;;5090704;28;20031;-74
2022/11/30 11:52:01;;;;;;;;;;;9.10;99.90;;;;;;5092741;28;20065;-72
2022/11/30 11:54:33;;;;;;;192.30;72.40;;;9.40;99.90;;;;;;5076394;28;20295;-73
2022/11/30 11:56:59;;;;;;;169.23;70.18;;;9.30;99.90;;;;;;5072160;28;20032;-72
2022/11/30 11:59:53;;;;;;;165.30;66.88;;;9.00;99.90;;;;;;5071876;28;20040;-73
2022/11/30 12:02:44;;;;;;;160.63;66.90;;;8.90;99.90;;;;;;5061572;28;20047;-73
2022/11/30 12:05:31;;;;;;;159.27;66.70;;;9.30;99.90;;;;;;5050063;28;20020;-73
2022/11/30 12:08:04;;;;;;;155.88;69.38;;;9.40;99.90;;;;;;5067142;28;20032;-73
2022/11/30 12:10:54;;;;;;;148.25;64.65;;;9.50;99.90;;;;;;5064783;28;20029;-73
2022/11/30 12:13:24;;;;;;;138.85;61.10;;;9.20;99.90;;;;;;5067120;28;20575;-72
2022/11/30 12:15:55;;;;;;;158.38;67.60;;;8.70;99.90;;;;;;5070815;28;20033;-72
2022/11/30 12:18:28;;;;;;;161.90;67.82;;;9.20;99.90;;;;;;5065489;28;20025;-72
2022/11/30 12:21:20;;;;;;;158.88;70.63;;;9.50;99.90;;;;;;5074558;28;20028;-72
2022/11/30 12:23:56;;;;;;;160.73;66.97;;;9.20;99.90;;;;;;5072443;28;20051;-73
2022/11/30 12:26:25;;;;;;;166.00;69.07;;;9.60;99.90;;;;;;5073438;28;20048;-72
2022/11/30 12:29:28;;;;;;;163.35;67.25;;;9.60;99.90;;;;;;5074565;28;20384;-72
2022/11/30 12:32:07;;;;;;;163.52;68.55;;;10.00;99.90;;;;;;5055344;28;20127;-73
2022/11/30 12:34:35;;;;;;;173.13;69.82;;;10.20;99.90;;;;;;5072053;28;20377;-72
2022/11/30 12:37:16;;;;;;;166.50;71.32;;;10.50;99.90;;;;;;5073778;28;20400;-72
2022/11/30 12:39:55;;;;;;;152.57;67.05;;;11.30;99.90;;;;;;5073309;28;20044;-72
2022/11/30 12:42:43;;;;;;;140.38;60.78;;;10.70;99.90;;;;;;5073713;28;20044;-73
2022/11/30 12:45:12;;;;;;;142.90;62.35;;;10.20;99.90;;;;;;5066673;28;20112;-73